createdAt,value
2018-02-25T06:08:03.612Z,51.40
2018-02-25T06:10:35.486Z,51.70
2018-02-25T06:13:07.629Z,51.90
2018-02-25T06:15:39.499Z,52.10
2018-02-25T06:18:11.428Z,51.80
2018-02-25T06:20:44.080Z,51.80
2018-02-25T06:23:16.039Z,51.70
2018-02-25T06:25:47.907Z,51.90
2018-02-25T06:28:19.860Z,51.70
2018-02-25T06:30:51.811Z,51.80
2018-02-25T06:33:23.699Z,51.70
2018-02-25T06:35:55.580Z,52.00
2018-02-25T06:38:28.312Z,52.10
2018-02-25T06:41:00.182Z,52.00
2018-02-25T06:43:32.075Z,52.10
2018-02-25T06:46:04.816Z,52.20
2018-02-25T06:48:36.704Z,52.10
2018-02-25T06:51:09.355Z,52.20
2018-02-25T06:53:41.237Z,51.80
2018-02-25T06:56:13.178Z,51.80
2018-02-25T06:58:45.071Z,51.70
2018-02-25T07:01:17.716Z,51.50
2018-02-25T07:03:49.608Z,51.40
2018-02-25T07:06:22.252Z,51.40
2018-02-25T07:08:54.215Z,51.40
2018-02-25T07:11:26.083Z,51.60
2018-02-25T07:13:57.967Z,51.40
2018-02-25T07:16:30.621Z,51.70
2018-02-25T07:19:02.511Z,51.60
2018-02-25T07:21:35.160Z,51.40
2018-02-25T07:24:07.050Z,51.30
2018-02-25T07:26:39.940Z,51.10
2018-02-25T07:29:12.836Z,51.40
2018-02-25T07:31:44.748Z,51.30
2018-02-25T07:34:16.587Z,51.10
2018-02-25T07:36:48.586Z,50.90
2018-02-25T07:39:20.460Z,50.10
2018-02-25T07:41:53.095Z,50.50
2018-02-25T07:44:25.151Z,50.40
2018-02-25T07:46:57.126Z,50.30
2018-02-25T07:49:29.079Z,50.20
2018-02-25T07:52:00.943Z,49.80
2018-02-25T07:54:32.913Z,48.80
2018-02-25T07:57:04.775Z,47.50
2018-02-25T07:59:36.729Z,46.80
2018-02-25T08:02:08.599Z,46.70
2018-02-25T08:04:40.816Z,46.90
2018-02-25T08:07:12.976Z,47.60
2018-02-25T08:09:44.862Z,48.00
2018-02-25T08:12:17.111Z,48.50
2018-02-25T08:14:48.996Z,49.10
2018-02-25T08:17:20.869Z,49.20
2018-02-25T08:19:52.764Z,49.50
2018-02-25T08:22:24.647Z,49.30
2018-02-25T08:24:57.371Z,49.40
2018-02-25T08:27:29.338Z,49.40
2018-02-25T08:30:01.343Z,49.10
2018-02-25T08:32:33.180Z,49.60
2018-02-25T08:35:05.115Z,49.60
2018-02-25T08:37:37.079Z,50.00
2018-02-25T08:40:08.982Z,49.80
2018-02-25T08:42:41.619Z,49.20
2018-02-25T08:45:13.591Z,49.20
2018-02-25T08:47:45.458Z,48.50
2018-02-25T08:50:17.401Z,48.50
2018-02-25T08:52:49.271Z,48.60
2018-02-25T08:55:21.219Z,48.40
2018-02-25T08:57:53.183Z,48.00
2018-02-25T09:00:25.147Z,47.80
2018-02-25T09:02:57.266Z,47.70
2018-02-25T09:05:29.201Z,47.60
2018-02-25T09:08:01.923Z,47.40
2018-02-25T09:10:33.830Z,47.40
2018-02-25T09:13:05.707Z,46.60
2018-02-25T09:15:38.471Z,45.80
2018-02-25T09:18:10.460Z,45.80
2018-02-25T09:20:42.378Z,45.20
2018-02-25T09:23:14.340Z,45.10
2018-02-25T09:25:46.460Z,44.30
2018-02-25T09:28:18.340Z,43.80
2018-02-25T09:30:50.222Z,43.70
2018-02-25T09:33:22.184Z,44.20
2018-02-25T09:35:54.108Z,44.10
2018-02-25T09:38:26.056Z,42.70
2018-02-25T09:40:58.720Z,42.20
2018-02-25T09:43:30.748Z,42.10
2018-02-25T09:46:02.678Z,42.10
2018-02-25T09:48:34.583Z,41.00
2018-02-25T09:51:06.535Z,39.90
2018-02-25T09:53:38.435Z,40.50
2018-02-25T09:56:11.182Z,39.70
2018-02-25T09:58:43.059Z,39.60
2018-02-25T10:01:14.990Z,38.90
2018-02-25T10:03:46.907Z,39.10
2018-02-25T10:06:19.632Z,39.20
2018-02-25T10:08:51.596Z,39.10
2018-02-25T10:11:23.548Z,39.00
2018-02-25T10:13:55.412Z,38.90
2018-02-25T10:16:27.436Z,38.70
2018-02-25T10:18:59.329Z,39.10
2018-02-25T10:21:31.216Z,38.90
2018-02-25T10:24:03.321Z,38.30
2018-02-25T10:26:35.218Z,37.60
2018-02-25T10:29:07.092Z,36.20
2018-02-25T10:31:39.046Z,35.90
2018-02-25T10:34:10.936Z,36.60
2018-02-25T10:36:42.847Z,35.30
2018-02-25T10:39:14.759Z,35.40
2018-02-25T10:41:46.691Z,35.80
2018-02-25T10:44:18.656Z,34.80
2018-02-25T10:46:50.979Z,34.20
2018-02-25T10:49:22.882Z,33.70
2018-02-25T10:51:54.758Z,33.60
2018-02-25T10:54:26.628Z,33.70
2018-02-25T10:56:58.826Z,33.30
2018-02-25T10:59:30.698Z,33.00
2018-02-25T11:02:02.587Z,32.90
2018-02-25T11:04:34.825Z,33.10
2018-02-25T11:07:06.707Z,32.30
2018-02-25T11:09:38.589Z,31.20
2018-02-25T11:12:10.541Z,30.20
2018-02-25T11:14:42.874Z,28.90
2018-02-25T11:17:14.773Z,28.80
2018-02-25T11:19:46.635Z,29.10
2018-02-25T11:22:18.522Z,29.60
2018-02-25T11:24:50.390Z,29.90
2018-02-25T11:27:23.070Z,29.10
2018-02-25T11:29:55.806Z,29.50
2018-02-25T11:32:27.716Z,29.40
2018-02-25T11:35:00.367Z,28.90
2018-02-25T11:37:32.331Z,29.30
2018-02-25T11:40:04.218Z,29.40
2018-02-25T11:42:36.925Z,30.00
2018-02-25T11:45:08.800Z,29.90
2018-02-25T11:47:40.696Z,29.50
2018-02-25T11:50:12.571Z,29.10
2018-02-25T11:52:45.467Z,28.70
2018-02-25T11:55:18.294Z,28.40
2018-02-25T11:57:50.529Z,28.40
2018-02-25T12:00:22.706Z,28.40
2018-02-25T12:02:54.632Z,28.40
2018-02-25T12:05:27.264Z,28.10
2018-02-25T12:07:59.148Z,28.00
2018-02-25T12:10:31.064Z,27.70
2018-02-25T12:13:03.003Z,28.40
2018-02-25T12:15:35.640Z,28.10
2018-02-25T12:18:07.523Z,28.10
2018-02-25T12:20:39.400Z,28.10
2018-02-25T12:23:12.048Z,27.80
2018-02-25T12:25:43.924Z,27.80
2018-02-25T12:28:15.843Z,26.80
2018-02-25T12:30:47.794Z,26.90
2018-02-25T12:33:19.682Z,26.70
2018-02-25T12:35:51.602Z,26.50
2018-02-25T12:38:23.481Z,26.30
2018-02-25T12:40:55.611Z,26.70
2018-02-25T12:43:27.486Z,26.80
2018-02-25T12:45:59.363Z,26.60
2018-02-25T12:48:31.244Z,25.60
2018-02-25T12:51:03.116Z,25.00
2018-02-25T12:53:34.995Z,25.10
2018-02-25T12:56:07.623Z,25.50
2018-02-25T12:58:39.507Z,25.50
2018-02-25T13:01:11.379Z,25.60
2018-02-25T13:03:43.261Z,24.80
2018-02-25T13:06:15.887Z,25.10
2018-02-25T13:08:47.775Z,25.10
2018-02-25T13:11:19.661Z,24.80
2018-02-25T13:13:52.307Z,24.10
2018-02-25T13:16:24.172Z,24.00
2018-02-25T13:18:56.057Z,23.50
2018-02-25T13:21:28.682Z,23.40
2018-02-25T13:24:00.562Z,23.30
2018-02-25T13:26:32.430Z,23.20
2018-02-25T13:29:04.313Z,23.10
2018-02-25T13:31:37.204Z,22.90
2018-02-25T13:34:09.090Z,22.90
2018-02-25T13:36:40.955Z,22.70
2018-02-25T13:39:12.834Z,23.40
2018-02-25T13:41:44.724Z,22.50
2018-02-25T13:44:16.595Z,22.20
2018-02-25T13:46:49.235Z,22.50
2018-02-25T13:49:21.122Z,22.50
2018-02-25T13:51:53.763Z,22.40
2018-02-25T13:54:25.650Z,21.80
2018-02-25T13:56:57.525Z,21.20
2018-02-25T13:59:30.172Z,21.10
2018-02-25T14:02:02.040Z,21.10
2018-02-25T14:04:35.371Z,20.40
2018-02-25T14:07:07.239Z,20.80
2018-02-25T14:09:39.140Z,20.90
2018-02-25T14:12:11.257Z,20.90
2018-02-25T14:14:43.139Z,20.90
2018-02-25T14:17:15.011Z,20.50
2018-02-25T14:19:46.883Z,21.30
2018-02-25T14:22:19.007Z,21.60
2018-02-25T14:24:50.896Z,21.40
2018-02-25T14:27:22.768Z,21.90
2018-02-25T14:29:54.650Z,21.40
2018-02-25T14:32:26.515Z,21.20
2018-02-25T14:34:58.391Z,21.10
2018-02-25T14:37:31.034Z,21.00
2018-02-25T14:40:02.916Z,21.00
2018-02-25T14:42:34.779Z,20.50
2018-02-25T14:45:07.424Z,20.80
2018-02-25T14:47:39.544Z,20.70
2018-02-25T14:50:11.435Z,20.80
2018-02-25T14:52:43.304Z,21.00
2018-02-25T14:55:15.183Z,21.00
2018-02-25T14:57:47.060Z,21.20
2018-02-25T15:00:18.985Z,21.20
2018-02-25T15:02:50.814Z,21.70
2018-02-25T15:05:22.704Z,21.80
2018-02-25T15:07:54.576Z,21.30
2018-02-25T15:10:26.469Z,21.10
2018-02-25T15:12:59.100Z,22.00
2018-02-25T15:15:30.971Z,22.00
2018-02-25T15:18:02.849Z,23.10
2018-02-25T15:20:34.736Z,23.60
2018-02-25T15:23:07.363Z,23.40
2018-02-25T15:25:39.303Z,23.40
2018-02-25T15:28:11.175Z,23.90
2018-02-25T15:30:43.052Z,24.20
2018-02-25T15:33:15.692Z,24.20
2018-02-25T15:35:47.589Z,24.30
2018-02-25T15:38:19.532Z,24.30
2018-02-25T15:40:52.175Z,24.30
2018-02-25T15:43:24.809Z,24.70
2018-02-25T15:45:56.726Z,24.20
2018-02-25T15:48:28.615Z,24.20
2018-02-25T15:51:00.491Z,24.20
2018-02-25T15:53:32.383Z,24.40
2018-02-25T15:56:05.031Z,24.80
2018-02-25T15:58:36.924Z,24.70
2018-02-25T16:01:09.577Z,30.70
2018-02-25T16:03:41.449Z,29.50
2018-02-25T16:06:13.654Z,30.50
2018-02-25T16:08:45.515Z,31.30
2018-02-25T16:11:17.394Z,31.40
2018-02-25T16:13:49.272Z,31.90
2018-02-25T16:16:21.155Z,31.60
2018-02-25T16:18:53.069Z,31.80
2018-02-25T16:21:24.955Z,32.20
2018-02-25T16:23:56.837Z,30.80
2018-02-25T16:26:28.725Z,30.60
2018-02-25T16:29:00.631Z,30.30
2018-02-25T16:31:32.479Z,30.70
2018-02-25T16:34:04.346Z,30.90
2018-02-25T16:36:36.235Z,31.10
2018-02-25T16:39:08.131Z,31.30
2018-02-25T16:41:40.019Z,31.40
2018-02-25T16:44:11.908Z,31.50
2018-02-25T16:46:43.790Z,31.40
2018-02-25T16:49:16.428Z,31.60
2018-02-25T16:51:48.659Z,31.60
2018-02-25T16:54:20.634Z,32.00
2018-02-25T16:56:52.539Z,32.90
2018-02-25T16:59:24.406Z,33.10
2018-02-25T17:01:57.054Z,34.00
2018-02-25T17:04:28.955Z,33.90
2018-02-25T17:07:01.606Z,34.40
2018-02-25T17:09:33.482Z,34.40
2018-02-25T17:12:06.131Z,34.50
2018-02-25T17:14:38.064Z,34.50
2018-02-25T17:17:10.009Z,34.60
2018-02-25T17:19:41.929Z,35.00
2018-02-25T17:22:13.825Z,35.40
2018-02-25T17:24:45.695Z,35.50
2018-02-25T17:27:17.600Z,35.60
2018-02-25T17:29:49.458Z,35.70
2018-02-25T17:32:21.358Z,35.70
2018-02-25T17:34:54.012Z,35.60
2018-02-25T17:37:25.896Z,35.60
2018-02-25T17:39:58.564Z,35.90
2018-02-25T17:42:30.428Z,35.80
2018-02-25T17:45:03.865Z,35.60
2018-02-25T17:47:35.763Z,35.60
2018-02-25T17:50:07.672Z,35.40
2018-02-25T17:52:39.831Z,32.90
2018-02-25T17:55:11.704Z,33.00
2018-02-25T17:57:43.592Z,33.40
2018-02-25T18:00:15.472Z,34.90
2018-02-25T18:02:47.430Z,36.00
2018-02-25T18:05:19.295Z,36.30
2018-02-25T18:07:51.205Z,36.50
2018-02-25T18:10:23.126Z,36.60
2018-02-25T18:12:55.008Z,36.50
2018-02-25T18:15:27.893Z,35.90
2018-02-25T18:17:59.830Z,35.80
2018-02-25T18:20:31.704Z,34.70
2018-02-25T18:23:04.367Z,34.10
2018-02-25T18:25:36.235Z,34.10
2018-02-25T18:28:08.904Z,34.40
2018-02-25T18:30:40.804Z,34.30
2018-02-25T18:33:12.700Z,34.70
2018-02-25T18:35:44.576Z,33.80
2018-02-25T18:38:16.463Z,32.90
2018-02-25T18:40:49.115Z,33.60
2018-02-25T18:43:21.003Z,33.60
2018-02-25T18:45:53.652Z,33.90
2018-02-25T18:48:25.581Z,33.90
2018-02-25T18:50:57.443Z,34.00
2018-02-25T18:53:29.584Z,34.40
2018-02-25T18:56:02.220Z,34.70
2018-02-25T18:58:34.172Z,34.60
2018-02-25T19:01:06.823Z,34.20
2018-02-25T19:03:38.710Z,34.20
2018-02-25T19:06:10.598Z,34.30
2018-02-25T19:08:43.495Z,33.80
2018-02-25T19:11:16.123Z,33.80
2018-02-25T19:13:48.015Z,33.70
2018-02-25T19:16:20.664Z,36.20
2018-02-25T19:18:53.699Z,36.20
2018-02-25T19:21:25.631Z,36.60
2018-02-25T19:23:57.541Z,37.30
2018-02-25T19:26:30.145Z,38.00
2018-02-25T19:29:02.161Z,38.00
2018-02-25T19:31:34.794Z,39.10
2018-02-25T19:34:06.682Z,39.10
2018-02-25T19:36:39.319Z,39.90
2018-02-25T19:39:11.353Z,39.80
2018-02-25T19:41:43.244Z,39.80
2018-02-25T19:44:15.123Z,39.90
2018-02-25T19:46:47.000Z,40.20
2018-02-25T19:49:18.888Z,40.50
2018-02-25T19:51:50.805Z,41.10
2018-02-25T19:54:22.732Z,41.50
2018-02-25T19:56:54.599Z,42.00
2018-02-25T19:59:26.487Z,42.70
2018-02-25T20:01:58.355Z,43.10
2018-02-25T20:04:30.241Z,43.80
2018-02-25T20:07:02.229Z,43.90
2018-02-25T20:09:34.109Z,44.20
2018-02-25T20:12:05.984Z,45.00
2018-02-25T20:14:37.878Z,45.40
2018-02-25T20:17:10.562Z,46.60
2018-02-25T20:19:43.289Z,47.40
2018-02-25T20:22:15.226Z,47.30
2018-02-25T20:24:47.165Z,48.50
2018-02-25T20:27:19.800Z,49.80
2018-02-25T20:29:51.687Z,49.80
2018-02-25T20:32:24.358Z,50.80
2018-02-25T20:34:56.276Z,50.80
